sensor_id;sensor_type;location;lat;lon;timestamp;P1;durP1;ratioP1;P2;durP2;ratioP2
25707;SDS011;13567;61.652;17.100;2022-10-31T00:01:26;7.07;;;2.23;;
25707;SDS011;13567;61.652;17.100;2022-10-31T00:03:55;6.27;;;2.30;;
25707;SDS011;13567;61.652;17.100;2022-10-31T00:06:22;6.30;;;2.37;;
25707;SDS011;13567;61.652;17.100;2022-10-31T00:08:53;8.13;;;2.37;;
25707;SDS011;13567;61.652;17.100;2022-10-31T00:11:25;10.80;;;2.70;;
25707;SDS011;13567;61.652;17.100;2022-10-31T00:13:53;7.23;;;2.63;;
25707;SDS011;13567;61.652;17.100;2022-10-31T00:16:21;6.73;;;2.00;;
25707;SDS011;13567;61.652;17.100;2022-10-31T00:18:50;8.57;;;2.50;;
25707;SDS011;13567;61.652;17.100;2022-10-31T00:21:18;11.73;;;4.70;;
25707;SDS011;13567;61.652;17.100;2022-10-31T00:23:46;11.27;;;3.53;;
25707;SDS011;13567;61.652;17.100;2022-10-31T00:26:13;11.33;;;3.73;;
25707;SDS011;13567;61.652;17.100;2022-10-31T00:28:41;13.90;;;4.70;;
25707;SDS011;13567;61.652;17.100;2022-10-31T00:31:09;11.97;;;3.13;;
25707;SDS011;13567;61.652;17.100;2022-10-31T00:33:37;14.13;;;4.23;;
25707;SDS011;13567;61.652;17.100;2022-10-31T00:36:05;9.13;;;3.07;;
25707;SDS011;13567;61.652;17.100;2022-10-31T00:38:34;6.37;;;2.47;;
25707;SDS011;13567;61.652;17.100;2022-10-31T00:41:01;7.87;;;2.33;;
25707;SDS011;13567;61.652;17.100;2022-10-31T00:43:28;12.27;;;3.33;;
25707;SDS011;13567;61.652;17.100;2022-10-31T00:45:55;9.40;;;2.73;;
25707;SDS011;13567;61.652;17.100;2022-10-31T00:48:22;10.37;;;3.70;;
25707;SDS011;13567;61.652;17.100;2022-10-31T00:50:49;11.00;;;2.60;;
25707;SDS011;13567;61.652;17.100;2022-10-31T00:53:16;10.93;;;3.43;;
25707;SDS011;13567;61.652;17.100;2022-10-31T00:55:42;13.07;;;3.80;;
25707;SDS011;13567;61.652;17.100;2022-10-31T00:58:10;10.27;;;3.87;;
25707;SDS011;13567;61.652;17.100;2022-10-31T01:00:37;13.60;;;3.70;;
25707;SDS011;13567;61.652;17.100;2022-10-31T01:03:04;13.40;;;5.17;;
25707;SDS011;13567;61.652;17.100;2022-10-31T01:05:31;14.93;;;6.27;;
25707;SDS011;13567;61.652;17.100;2022-10-31T01:07:59;17.63;;;6.17;;
25707;SDS011;13567;61.652;17.100;2022-10-31T01:10:26;15.73;;;4.97;;
25707;SDS011;13567;61.652;17.100;2022-10-31T01:12:53;9.97;;;3.50;;
25707;SDS011;13567;61.652;17.100;2022-10-31T01:15:21;8.80;;;2.77;;
25707;SDS011;13567;61.652;17.100;2022-10-31T01:17:49;15.93;;;5.70;;
25707;SDS011;13567;61.652;17.100;2022-10-31T01:20:17;13.17;;;4.17;;
25707;SDS011;13567;61.652;17.100;2022-10-31T01:22:44;26.77;;;9.73;;
25707;SDS011;13567;61.652;17.100;2022-10-31T01:25:11;22.27;;;7.00;;
25707;SDS011;13567;61.652;17.100;2022-10-31T01:27:38;19.97;;;7.33;;
25707;SDS011;13567;61.652;17.100;2022-10-31T01:30:05;18.30;;;6.10;;
25707;SDS011;13567;61.652;17.100;2022-10-31T01:32:33;19.13;;;5.60;;
25707;SDS011;13567;61.652;17.100;2022-10-31T01:35:00;18.47;;;6.07;;
25707;SDS011;13567;61.652;17.100;2022-10-31T01:37:27;18.70;;;6.90;;
25707;SDS011;13567;61.652;17.100;2022-10-31T01:39:54;19.93;;;5.37;;
25707;SDS011;13567;61.652;17.100;2022-10-31T01:42:21;28.60;;;9.67;;
25707;SDS011;13567;61.652;17.100;2022-10-31T01:44:50;44.07;;;16.83;;
25707;SDS011;13567;61.652;17.100;2022-10-31T01:47:21;26.27;;;9.50;;
25707;SDS011;13567;61.652;17.100;2022-10-31T01:50:05;19.00;;;5.70;;
25707;SDS011;13567;61.652;17.100;2022-10-31T01:52:38;36.80;;;11.77;;
25707;SDS011;13567;61.652;17.100;2022-10-31T01:55:09;57.20;;;17.83;;
25707;SDS011;13567;61.652;17.100;2022-10-31T01:57:57;24.77;;;7.43;;
25707;SDS011;13567;61.652;17.100;2022-10-31T02:00:28;36.53;;;14.87;;
25707;SDS011;13567;61.652;17.100;2022-10-31T02:02:55;37.70;;;14.17;;
25707;SDS011;13567;61.652;17.100;2022-10-31T02:05:24;39.23;;;12.77;;
25707;SDS011;13567;61.652;17.100;2022-10-31T02:08:05;40.03;;;13.73;;
25707;SDS011;13567;61.652;17.100;2022-10-31T02:10:52;39.03;;;13.73;;
25707;SDS011;13567;61.652;17.100;2022-10-31T02:13:19;34.80;;;13.13;;
25707;SDS011;13567;61.652;17.100;2022-10-31T02:15:52;32.50;;;10.70;;
25707;SDS011;13567;61.652;17.100;2022-10-31T02:18:21;25.67;;;10.03;;
25707;SDS011;13567;61.652;17.100;2022-10-31T02:29:23;27.77;;;10.63;;
25707;SDS011;13567;61.652;17.100;2022-10-31T02:40:35;32.83;;;13.20;;
25707;SDS011;13567;61.652;17.100;2022-10-31T02:43:31;30.73;;;10.97;;
25707;SDS011;13567;61.652;17.100;2022-10-31T02:49:21;28.17;;;10.87;;
25707;SDS011;13567;61.652;17.100;2022-10-31T02:51:52;26.53;;;10.43;;
25707;SDS011;13567;61.652;17.100;2022-10-31T02:54:21;23.73;;;9.37;;
25707;SDS011;13567;61.652;17.100;2022-10-31T02:56:51;22.47;;;9.37;;
25707;SDS011;13567;61.652;17.100;2022-10-31T02:59:23;23.67;;;9.53;;
25707;SDS011;13567;61.652;17.100;2022-10-31T03:07:41;22.40;;;7.97;;
25707;SDS011;13567;61.652;17.100;2022-10-31T03:15:35;18.80;;;7.10;;
25707;SDS011;13567;61.652;17.100;2022-10-31T03:18:09;20.70;;;6.47;;
25707;SDS011;13567;61.652;17.100;2022-10-31T03:20:43;19.63;;;5.77;;
25707;SDS011;13567;61.652;17.100;2022-10-31T03:23:14;19.03;;;7.10;;
25707;SDS011;13567;61.652;17.100;2022-10-31T03:25:44;17.90;;;6.07;;
25707;SDS011;13567;61.652;17.100;2022-10-31T03:28:15;17.50;;;6.80;;
25707;SDS011;13567;61.652;17.100;2022-10-31T03:30:50;21.53;;;7.70;;
25707;SDS011;13567;61.652;17.100;2022-10-31T03:33:19;17.43;;;6.40;;
25707;SDS011;13567;61.652;17.100;2022-10-31T03:35:50;17.57;;;7.00;;
25707;SDS011;13567;61.652;17.100;2022-10-31T03:38:21;17.17;;;6.67;;
25707;SDS011;13567;61.652;17.100;2022-10-31T03:40:49;18.50;;;6.60;;
25707;SDS011;13567;61.652;17.100;2022-10-31T03:43:26;15.17;;;5.23;;
25707;SDS011;13567;61.652;17.100;2022-10-31T03:45:58;15.80;;;6.20;;
25707;SDS011;13567;61.652;17.100;2022-10-31T03:48:25;16.90;;;6.57;;
25707;SDS011;13567;61.652;17.100;2022-10-31T03:51:14;17.63;;;6.30;;
25707;SDS011;13567;61.652;17.100;2022-10-31T03:56:46;18.37;;;6.30;;
25707;SDS011;13567;61.652;17.100;2022-10-31T03:59:24;15.07;;;6.33;;
25707;SDS011;13567;61.652;17.100;2022-10-31T04:01:57;17.23;;;6.03;;
25707;SDS011;13567;61.652;17.100;2022-10-31T04:04:27;13.17;;;6.00;;
25707;SDS011;13567;61.652;17.100;2022-10-31T04:06:56;15.33;;;5.13;;
25707;SDS011;13567;61.652;17.100;2022-10-31T04:09:26;16.87;;;6.27;;
25707;SDS011;13567;61.652;17.100;2022-10-31T04:11:56;15.47;;;5.63;;
25707;SDS011;13567;61.652;17.100;2022-10-31T04:14:26;13.77;;;5.57;;
25707;SDS011;13567;61.652;17.100;2022-10-31T04:16:56;16.10;;;5.07;;
25707;SDS011;13567;61.652;17.100;2022-10-31T04:19:23;15.90;;;5.83;;
25707;SDS011;13567;61.652;17.100;2022-10-31T04:21:50;11.17;;;3.97;;
25707;SDS011;13567;61.652;17.100;2022-10-31T04:24:17;13.03;;;4.40;;
25707;SDS011;13567;61.652;17.100;2022-10-31T04:26:44;11.90;;;3.77;;
25707;SDS011;13567;61.652;17.100;2022-10-31T04:29:11;12.23;;;3.70;;
25707;SDS011;13567;61.652;17.100;2022-10-31T04:31:38;12.30;;;3.50;;
25707;SDS011;13567;61.652;17.100;2022-10-31T04:34:04;9.93;;;2.90;;
25707;SDS011;13567;61.652;17.100;2022-10-31T04:36:31;12.07;;;3.30;;
25707;SDS011;13567;61.652;17.100;2022-10-31T04:38:58;8.53;;;3.00;;
25707;SDS011;13567;61.652;17.100;2022-10-31T04:41:25;10.47;;;3.33;;
25707;SDS011;13567;61.652;17.100;2022-10-31T04:43:52;11.17;;;3.13;;
25707;SDS011;13567;61.652;17.100;2022-10-31T04:46:20;7.87;;;2.40;;
25707;SDS011;13567;61.652;17.100;2022-10-31T04:48:47;8.60;;;2.40;;
25707;SDS011;13567;61.652;17.100;2022-10-31T04:51:14;12.17;;;2.40;;
25707;SDS011;13567;61.652;17.100;2022-10-31T04:53:41;7.23;;;2.30;;
25707;SDS011;13567;61.652;17.100;2022-10-31T04:56:08;7.07;;;2.63;;
25707;SDS011;13567;61.652;17.100;2022-10-31T04:58:35;5.17;;;1.83;;
25707;SDS011;13567;61.652;17.100;2022-10-31T05:01:02;8.93;;;2.40;;
25707;SDS011;13567;61.652;17.100;2022-10-31T05:03:29;7.43;;;2.40;;
25707;SDS011;13567;61.652;17.100;2022-10-31T05:05:56;6.13;;;2.10;;
25707;SDS011;13567;61.652;17.100;2022-10-31T05:08:23;11.57;;;3.07;;
25707;SDS011;13567;61.652;17.100;2022-10-31T05:10:50;4.50;;;1.63;;
25707;SDS011;13567;61.652;17.100;2022-10-31T05:13:18;7.67;;;2.47;;
25707;SDS011;13567;61.652;17.100;2022-10-31T05:15:50;5.07;;;1.50;;
25707;SDS011;13567;61.652;17.100;2022-10-31T05:18:17;5.50;;;1.53;;
25707;SDS011;13567;61.652;17.100;2022-10-31T05:20:44;4.57;;;1.63;;
25707;SDS011;13567;61.652;17.100;2022-10-31T05:23:11;4.10;;;1.80;;
25707;SDS011;13567;61.652;17.100;2022-10-31T05:25:39;5.50;;;1.53;;
25707;SDS011;13567;61.652;17.100;2022-10-31T05:28:06;7.27;;;2.00;;
25707;SDS011;13567;61.652;17.100;2022-10-31T05:30:34;9.07;;;3.07;;
25707;SDS011;13567;61.652;17.100;2022-10-31T05:33:01;6.57;;;1.90;;
25707;SDS011;13567;61.652;17.100;2022-10-31T05:35:29;11.47;;;1.77;;
25707;SDS011;13567;61.652;17.100;2022-10-31T05:37:57;3.53;;;1.37;;
25707;SDS011;13567;61.652;17.100;2022-10-31T05:40:25;4.67;;;1.60;;
25707;SDS011;13567;61.652;17.100;2022-10-31T05:42:54;4.93;;;1.80;;
25707;SDS011;13567;61.652;17.100;2022-10-31T05:45:22;6.03;;;1.90;;
25707;SDS011;13567;61.652;17.100;2022-10-31T05:47:53;4.30;;;1.80;;
25707;SDS011;13567;61.652;17.100;2022-10-31T05:50:23;5.53;;;1.60;;
25707;SDS011;13567;61.652;17.100;2022-10-31T05:52:59;5.23;;;1.63;;
25707;SDS011;13567;61.652;17.100;2022-10-31T05:55:27;4.47;;;1.60;;
25707;SDS011;13567;61.652;17.100;2022-10-31T05:57:55;4.27;;;1.57;;
25707;SDS011;13567;61.652;17.100;2022-10-31T06:00:22;5.77;;;2.00;;
25707;SDS011;13567;61.652;17.100;2022-10-31T06:05:44;7.03;;;2.20;;
25707;SDS011;13567;61.652;17.100;2022-10-31T06:08:17;8.00;;;2.07;;
25707;SDS011;13567;61.652;17.100;2022-10-31T06:10:44;4.93;;;1.67;;
25707;SDS011;13567;61.652;17.100;2022-10-31T06:13:11;2.83;;;1.40;;
25707;SDS011;13567;61.652;17.100;2022-10-31T06:15:38;4.83;;;1.60;;
25707;SDS011;13567;61.652;17.100;2022-10-31T06:18:05;3.77;;;1.57;;
25707;SDS011;13567;61.652;17.100;2022-10-31T06:20:32;6.80;;;2.80;;
25707;SDS011;13567;61.652;17.100;2022-10-31T06:23:00;8.83;;;3.00;;
25707;SDS011;13567;61.652;17.100;2022-10-31T06:25:28;7.67;;;2.70;;
25707;SDS011;13567;61.652;17.100;2022-10-31T06:27:55;6.60;;;2.53;;
25707;SDS011;13567;61.652;17.100;2022-10-31T06:30:23;10.00;;;2.80;;
25707;SDS011;13567;61.652;17.100;2022-10-31T06:32:50;6.93;;;2.50;;
25707;SDS011;13567;61.652;17.100;2022-10-31T06:35:17;5.87;;;2.77;;
25707;SDS011;13567;61.652;17.100;2022-10-31T06:37:54;8.40;;;2.90;;
25707;SDS011;13567;61.652;17.100;2022-10-31T06:40:21;5.50;;;2.20;;
25707;SDS011;13567;61.652;17.100;2022-10-31T06:42:56;5.83;;;1.83;;
25707;SDS011;13567;61.652;17.100;2022-10-31T06:45:26;4.50;;;2.00;;
25707;SDS011;13567;61.652;17.100;2022-10-31T06:47:53;6.27;;;2.00;;
25707;SDS011;13567;61.652;17.100;2022-10-31T06:50:41;7.53;;;2.40;;
25707;SDS011;13567;61.652;17.100;2022-10-31T06:53:08;10.23;;;2.50;;
25707;SDS011;13567;61.652;17.100;2022-10-31T06:55:40;8.70;;;2.70;;
25707;SDS011;13567;61.652;17.100;2022-10-31T06:58:08;10.10;;;3.00;;
25707;SDS011;13567;61.652;17.100;2022-10-31T07:00:36;12.17;;;3.13;;
25707;SDS011;13567;61.652;17.100;2022-10-31T07:03:05;7.63;;;2.90;;
25707;SDS011;13567;61.652;17.100;2022-10-31T07:05:33;6.33;;;1.93;;
25707;SDS011;13567;61.652;17.100;2022-10-31T07:08:01;6.10;;;2.03;;
25707;SDS011;13567;61.652;17.100;2022-10-31T07:10:31;7.03;;;2.30;;
25707;SDS011;13567;61.652;17.100;2022-10-31T07:13:06;9.27;;;2.33;;
25707;SDS011;13567;61.652;17.100;2022-10-31T07:15:40;6.50;;;2.50;;
25707;SDS011;13567;61.652;17.100;2022-10-31T07:18:09;11.33;;;2.87;;
25707;SDS011;13567;61.652;17.100;2022-10-31T07:20:37;9.03;;;2.10;;
25707;SDS011;13567;61.652;17.100;2022-10-31T07:23:04;9.53;;;2.20;;
25707;SDS011;13567;61.652;17.100;2022-10-31T07:25:32;9.40;;;2.13;;
25707;SDS011;13567;61.652;17.100;2022-10-31T07:27:59;7.53;;;2.03;;
25707;SDS011;13567;61.652;17.100;2022-10-31T07:30:26;8.23;;;2.53;;
25707;SDS011;13567;61.652;17.100;2022-10-31T07:32:54;8.73;;;2.70;;
25707;SDS011;13567;61.652;17.100;2022-10-31T07:35:22;9.67;;;3.20;;
25707;SDS011;13567;61.652;17.100;2022-10-31T07:37:51;19.83;;;11.40;;
25707;SDS011;13567;61.652;17.100;2022-10-31T07:40:19;15.50;;;5.20;;
25707;SDS011;13567;61.652;17.100;2022-10-31T07:42:48;8.67;;;3.00;;
25707;SDS011;13567;61.652;17.100;2022-10-31T07:45:17;8.90;;;2.77;;
25707;SDS011;13567;61.652;17.100;2022-10-31T07:47:52;7.93;;;2.07;;
25707;SDS011;13567;61.652;17.100;2022-10-31T07:50:20;11.13;;;2.77;;
25707;SDS011;13567;61.652;17.100;2022-10-31T07:53:02;11.50;;;3.00;;
25707;SDS011;13567;61.652;17.100;2022-10-31T07:55:36;14.77;;;3.60;;
25707;SDS011;13567;61.652;17.100;2022-10-31T07:58:04;9.93;;;2.80;;
25707;SDS011;13567;61.652;17.100;2022-10-31T08:00:36;11.97;;;2.70;;
25707;SDS011;13567;61.652;17.100;2022-10-31T08:03:06;7.13;;;2.70;;
25707;SDS011;13567;61.652;17.100;2022-10-31T08:05:35;8.13;;;2.63;;
25707;SDS011;13567;61.652;17.100;2022-10-31T08:08:02;10.90;;;3.30;;
25707;SDS011;13567;61.652;17.100;2022-10-31T08:10:31;8.13;;;2.33;;
25707;SDS011;13567;61.652;17.100;2022-10-31T08:12:59;12.33;;;3.17;;
25707;SDS011;13567;61.652;17.100;2022-10-31T08:15:28;10.83;;;3.27;;
25707;SDS011;13567;61.652;17.100;2022-10-31T08:17:55;13.77;;;3.73;;
25707;SDS011;13567;61.652;17.100;2022-10-31T08:20:23;14.37;;;3.40;;
25707;SDS011;13567;61.652;17.100;2022-10-31T08:22:57;11.83;;;3.40;;
25707;SDS011;13567;61.652;17.100;2022-10-31T08:25:26;14.07;;;4.33;;
25707;SDS011;13567;61.652;17.100;2022-10-31T08:28:00;10.17;;;3.30;;
25707;SDS011;13567;61.652;17.100;2022-10-31T08:30:29;7.82;;;2.10;;
25707;SDS011;13567;61.652;17.100;2022-10-31T08:33:11;11.68;;;2.33;;
25707;SDS011;13567;61.652;17.100;2022-10-31T08:35:43;8.88;;;2.08;;
25707;SDS011;13567;61.652;17.100;2022-10-31T08:38:11;10.45;;;2.55;;
25707;SDS011;13567;61.652;17.100;2022-10-31T08:40:39;11.38;;;2.70;;
25707;SDS011;13567;61.652;17.100;2022-10-31T08:43:13;9.75;;;2.15;;
25707;SDS011;13567;61.652;17.100;2022-10-31T08:45:41;8.82;;;2.20;;
25707;SDS011;13567;61.652;17.100;2022-10-31T08:48:10;13.13;;;2.15;;
25707;SDS011;13567;61.652;17.100;2022-10-31T08:50:39;15.55;;;3.08;;
25707;SDS011;13567;61.652;17.100;2022-10-31T08:53:07;13.25;;;3.03;;
25707;SDS011;13567;61.652;17.100;2022-10-31T08:55:42;14.30;;;3.05;;
25707;SDS011;13567;61.652;17.100;2022-10-31T08:58:11;14.00;;;2.90;;
25707;SDS011;13567;61.652;17.100;2022-10-31T09:00:40;9.18;;;2.90;;
25707;SDS011;13567;61.652;17.100;2022-10-31T09:03:11;14.77;;;3.67;;
25707;SDS011;13567;61.652;17.100;2022-10-31T09:05:40;13.10;;;3.05;;
25707;SDS011;13567;61.652;17.100;2022-10-31T09:08:08;9.15;;;2.63;;
25707;SDS011;13567;61.652;17.100;2022-10-31T09:10:42;11.02;;;3.17;;
25707;SDS011;13567;61.652;17.100;2022-10-31T09:13:19;13.52;;;3.42;;
25707;SDS011;13567;61.652;17.100;2022-10-31T09:15:47;12.00;;;2.88;;
25707;SDS011;13567;61.652;17.100;2022-10-31T09:18:16;11.65;;;2.95;;
25707;SDS011;13567;61.652;17.100;2022-10-31T09:20:45;9.93;;;2.40;;
25707;SDS011;13567;61.652;17.100;2022-10-31T09:23:14;9.98;;;2.83;;
25707;SDS011;13567;61.652;17.100;2022-10-31T09:25:46;11.00;;;2.60;;
25707;SDS011;13567;61.652;17.100;2022-10-31T09:28:17;7.43;;;1.88;;
25707;SDS011;13567;61.652;17.100;2022-10-31T09:30:49;8.07;;;2.05;;
25707;SDS011;13567;61.652;17.100;2022-10-31T09:33:17;12.57;;;3.50;;
25707;SDS011;13567;61.652;17.100;2022-10-31T09:35:45;9.88;;;2.40;;
25707;SDS011;13567;61.652;17.100;2022-10-31T09:38:13;7.95;;;2.20;;
25707;SDS011;13567;61.652;17.100;2022-10-31T09:46:00;6.68;;;1.90;;
25707;SDS011;13567;61.652;17.100;2022-10-31T09:48:41;3.47;;;1.40;;
25707;SDS011;13567;61.652;17.100;2022-10-31T09:53:48;4.28;;;1.45;;
25707;SDS011;13567;61.652;17.100;2022-10-31T09:56:33;6.88;;;1.90;;
25707;SDS011;13567;61.652;17.100;2022-10-31T09:59:02;5.13;;;1.63;;
25707;SDS011;13567;61.652;17.100;2022-10-31T10:06:51;5.35;;;1.50;;
25707;SDS011;13567;61.652;17.100;2022-10-31T10:09:20;5.78;;;1.45;;
25707;SDS011;13567;61.652;17.100;2022-10-31T10:14:46;6.78;;;2.08;;
25707;SDS011;13567;61.652;17.100;2022-10-31T10:17:37;6.07;;;2.03;;
25707;SDS011;13567;61.652;17.100;2022-10-31T10:23:14;7.13;;;2.45;;
25707;SDS011;13567;61.652;17.100;2022-10-31T10:26:04;8.98;;;3.50;;
25707;SDS011;13567;61.652;17.100;2022-10-31T10:28:39;8.63;;;2.70;;
25707;SDS011;13567;61.652;17.100;2022-10-31T10:31:27;6.80;;;2.45;;
25707;SDS011;13567;61.652;17.100;2022-10-31T10:34:17;3.88;;;1.83;;
25707;SDS011;13567;61.652;17.100;2022-10-31T10:36:51;6.28;;;1.73;;
25707;SDS011;13567;61.652;17.100;2022-10-31T10:42:12;4.38;;;1.65;;
25707;SDS011;13567;61.652;17.100;2022-10-31T10:45:00;5.35;;;1.33;;
25707;SDS011;13567;61.652;17.100;2022-10-31T10:51:10;3.53;;;1.33;;
25707;SDS011;13567;61.652;17.100;2022-10-31T10:59:51;6.13;;;1.40;;
25707;SDS011;13567;61.652;17.100;2022-10-31T11:02:29;4.30;;;1.50;;
25707;SDS011;13567;61.652;17.100;2022-10-31T11:04:58;5.82;;;1.58;;
25707;SDS011;13567;61.652;17.100;2022-10-31T11:07:37;4.50;;;1.30;;
25707;SDS011;13567;61.652;17.100;2022-10-31T11:10:06;4.55;;;1.40;;
25707;SDS011;13567;61.652;17.100;2022-10-31T11:12:40;5.38;;;1.48;;
25707;SDS011;13567;61.652;17.100;2022-10-31T11:15:24;3.42;;;1.10;;
25707;SDS011;13567;61.652;17.100;2022-10-31T11:17:53;2.33;;;1.23;;
25707;SDS011;13567;61.652;17.100;2022-10-31T11:20:29;2.70;;;1.20;;
25707;SDS011;13567;61.652;17.100;2022-10-31T11:23:15;4.47;;;1.25;;
25707;SDS011;13567;61.652;17.100;2022-10-31T11:25:54;2.55;;;1.13;;
25707;SDS011;13567;61.652;17.100;2022-10-31T11:28:23;2.63;;;1.20;;
25707;SDS011;13567;61.652;17.100;2022-10-31T11:30:55;2.17;;;0.90;;
25707;SDS011;13567;61.652;17.100;2022-10-31T11:33:26;4.82;;;1.08;;
25707;SDS011;13567;61.652;17.100;2022-10-31T11:36:04;2.50;;;1.00;;
25707;SDS011;13567;61.652;17.100;2022-10-31T11:38:51;3.78;;;1.38;;
25707;SDS011;13567;61.652;17.100;2022-10-31T11:43:55;4.70;;;1.48;;
25707;SDS011;13567;61.652;17.100;2022-10-31T11:49:00;4.85;;;1.20;;
25707;SDS011;13567;61.652;17.100;2022-10-31T11:51:29;3.20;;;0.90;;
25707;SDS011;13567;61.652;17.100;2022-10-31T11:53:59;2.70;;;0.98;;
25707;SDS011;13567;61.652;17.100;2022-10-31T11:56:39;2.53;;;0.82;;
25707;SDS011;13567;61.652;17.100;2022-10-31T12:02:14;2.72;;;0.70;;
25707;SDS011;13567;61.652;17.100;2022-10-31T12:04:46;2.67;;;0.75;;
25707;SDS011;13567;61.652;17.100;2022-10-31T12:07:23;1.80;;;0.55;;
25707;SDS011;13567;61.652;17.100;2022-10-31T12:09:50;3.60;;;0.98;;
25707;SDS011;13567;61.652;17.100;2022-10-31T12:12:34;1.48;;;0.60;;
25707;SDS011;13567;61.652;17.100;2022-10-31T12:15:19;3.22;;;0.65;;
25707;SDS011;13567;61.652;17.100;2022-10-31T12:18:00;1.77;;;0.63;;
25707;SDS011;13567;61.652;17.100;2022-10-31T12:20:40;1.17;;;0.60;;
25707;SDS011;13567;61.652;17.100;2022-10-31T12:28:47;2.13;;;0.70;;
25707;SDS011;13567;61.652;17.100;2022-10-31T12:45:02;1.13;;;0.63;;
25707;SDS011;13567;61.652;17.100;2022-10-31T12:50:55;1.73;;;0.50;;
25707;SDS011;13567;61.652;17.100;2022-10-31T12:59:20;1.55;;;0.70;;
25707;SDS011;13567;61.652;17.100;2022-10-31T13:01:55;1.88;;;0.80;;
25707;SDS011;13567;61.652;17.100;2022-10-31T13:07:20;2.80;;;1.13;;
25707;SDS011;13567;61.652;17.100;2022-10-31T13:09:58;2.13;;;0.88;;
25707;SDS011;13567;61.652;17.100;2022-10-31T13:12:31;1.75;;;0.70;;
25707;SDS011;13567;61.652;17.100;2022-10-31T13:15:22;1.75;;;0.57;;
25707;SDS011;13567;61.652;17.100;2022-10-31T13:17:57;1.23;;;0.60;;
25707;SDS011;13567;61.652;17.100;2022-10-31T13:20:32;2.67;;;0.85;;
25707;SDS011;13567;61.652;17.100;2022-10-31T13:23:10;1.90;;;0.65;;
25707;SDS011;13567;61.652;17.100;2022-10-31T13:26:15;2.08;;;0.60;;
25707;SDS011;13567;61.652;17.100;2022-10-31T13:31:38;2.15;;;0.60;;
25707;SDS011;13567;61.652;17.100;2022-10-31T13:45:22;2.55;;;0.70;;
25707;SDS011;13567;61.652;17.100;2022-10-31T13:47:54;1.30;;;0.60;;
25707;SDS011;13567;61.652;17.100;2022-10-31T13:50:28;2.50;;;0.82;;
25707;SDS011;13567;61.652;17.100;2022-10-31T13:55:47;1.40;;;0.60;;
25707;SDS011;13567;61.652;17.100;2022-10-31T13:58:26;2.95;;;0.70;;
25707;SDS011;13567;61.652;17.100;2022-10-31T14:03:45;2.83;;;0.57;;
25707;SDS011;13567;61.652;17.100;2022-10-31T14:06:41;2.70;;;0.90;;
25707;SDS011;13567;61.652;17.100;2022-10-31T14:09:23;2.10;;;0.70;;
25707;SDS011;13567;61.652;17.100;2022-10-31T14:11:56;1.80;;;0.73;;
25707;SDS011;13567;61.652;17.100;2022-10-31T14:14:28;2.92;;;0.90;;
25707;SDS011;13567;61.652;17.100;2022-10-31T14:16:59;2.33;;;0.77;;
25707;SDS011;13567;61.652;17.100;2022-10-31T14:19:27;2.53;;;0.90;;
25707;SDS011;13567;61.652;17.100;2022-10-31T14:21:54;2.15;;;0.63;;
25707;SDS011;13567;61.652;17.100;2022-10-31T14:26:58;0.85;;;0.60;;
25707;SDS011;13567;61.652;17.100;2022-10-31T14:29:31;3.20;;;0.93;;
25707;SDS011;13567;61.652;17.100;2022-10-31T14:34:40;2.80;;;0.70;;
25707;SDS011;13567;61.652;17.100;2022-10-31T14:37:14;1.88;;;0.55;;
25707;SDS011;13567;61.652;17.100;2022-10-31T14:45:44;1.15;;;0.70;;
25707;SDS011;13567;61.652;17.100;2022-10-31T14:51:46;1.13;;;0.80;;
25707;SDS011;13567;61.652;17.100;2022-10-31T14:54:15;2.50;;;0.60;;
25707;SDS011;13567;61.652;17.100;2022-10-31T14:56:50;0.88;;;0.55;;
25707;SDS011;13567;61.652;17.100;2022-10-31T14:59:23;2.25;;;0.80;;
25707;SDS011;13567;61.652;17.100;2022-10-31T15:01:59;4.80;;;1.00;;
25707;SDS011;13567;61.652;17.100;2022-10-31T15:04:28;3.90;;;0.80;;
25707;SDS011;13567;61.652;17.100;2022-10-31T15:07:06;1.27;;;0.70;;
25707;SDS011;13567;61.652;17.100;2022-10-31T15:09:39;1.23;;;0.57;;
25707;SDS011;13567;61.652;17.100;2022-10-31T15:12:23;2.10;;;0.93;;
25707;SDS011;13567;61.652;17.100;2022-10-31T15:14:50;1.88;;;0.80;;
25707;SDS011;13567;61.652;17.100;2022-10-31T15:17:18;2.88;;;0.93;;
25707;SDS011;13567;61.652;17.100;2022-10-31T15:19:46;4.05;;;0.98;;
25707;SDS011;13567;61.652;17.100;2022-10-31T15:22:14;2.58;;;1.00;;
25707;SDS011;13567;61.652;17.100;2022-10-31T15:24:44;3.88;;;1.00;;
25707;SDS011;13567;61.652;17.100;2022-10-31T15:27:13;1.88;;;0.80;;
25707;SDS011;13567;61.652;17.100;2022-10-31T15:29:52;1.60;;;0.70;;
25707;SDS011;13567;61.652;17.100;2022-10-31T15:32:23;1.20;;;0.70;;
25707;SDS011;13567;61.652;17.100;2022-10-31T15:34:55;2.85;;;0.85;;
25707;SDS011;13567;61.652;17.100;2022-10-31T15:37:24;2.15;;;0.70;;
25707;SDS011;13567;61.652;17.100;2022-10-31T15:39:52;0.90;;;0.60;;
25707;SDS011;13567;61.652;17.100;2022-10-31T15:42:25;1.77;;;0.82;;
25707;SDS011;13567;61.652;17.100;2022-10-31T15:45:00;1.73;;;0.70;;
25707;SDS011;13567;61.652;17.100;2022-10-31T15:47:31;1.80;;;0.85;;
25707;SDS011;13567;61.652;17.100;2022-10-31T15:50:00;0.93;;;0.70;;
25707;SDS011;13567;61.652;17.100;2022-10-31T15:57:52;2.60;;;0.68;;
25707;SDS011;13567;61.652;17.100;2022-10-31T16:00:25;2.38;;;0.77;;
25707;SDS011;13567;61.652;17.100;2022-10-31T16:03:05;2.13;;;0.80;;
25707;SDS011;13567;61.652;17.100;2022-10-31T16:08:25;2.38;;;0.85;;
25707;SDS011;13567;61.652;17.100;2022-10-31T16:13:30;1.40;;;0.70;;
25707;SDS011;13567;61.652;17.100;2022-10-31T16:16:00;1.52;;;0.85;;
25707;SDS011;13567;61.652;17.100;2022-10-31T16:18:59;2.38;;;0.90;;
25707;SDS011;13567;61.652;17.100;2022-10-31T16:21:34;2.08;;;0.90;;
25707;SDS011;13567;61.652;17.100;2022-10-31T16:24:29;0.85;;;0.70;;
25707;SDS011;13567;61.652;17.100;2022-10-31T16:27:05;4.93;;;0.95;;
25707;SDS011;13567;61.652;17.100;2022-10-31T16:29:43;1.95;;;0.95;;
25707;SDS011;13567;61.652;17.100;2022-10-31T16:37:39;15.48;;;7.35;;
25707;SDS011;13567;61.652;17.100;2022-10-31T16:40:08;3.70;;;1.40;;
25707;SDS011;13567;61.652;17.100;2022-10-31T16:42:36;28.52;;;16.75;;
25707;SDS011;13567;61.652;17.100;2022-10-31T16:45:05;3.60;;;1.13;;
25707;SDS011;13567;61.652;17.100;2022-10-31T16:47:33;3.97;;;1.70;;
25707;SDS011;13567;61.652;17.100;2022-10-31T16:50:00;3.10;;;1.07;;
25707;SDS011;13567;61.652;17.100;2022-10-31T16:52:27;2.17;;;0.88;;
25707;SDS011;13567;61.652;17.100;2022-10-31T16:55:10;1.80;;;0.90;;
25707;SDS011;13567;61.652;17.100;2022-10-31T16:57:39;4.50;;;1.00;;
25707;SDS011;13567;61.652;17.100;2022-10-31T17:00:14;2.73;;;1.13;;
25707;SDS011;13567;61.652;17.100;2022-10-31T17:02:46;2.37;;;1.10;;
25707;SDS011;13567;61.652;17.100;2022-10-31T17:05:17;3.90;;;1.40;;
25707;SDS011;13567;61.652;17.100;2022-10-31T17:07:45;4.63;;;1.20;;
25707;SDS011;13567;61.652;17.100;2022-10-31T17:10:12;3.33;;;1.20;;
25707;SDS011;13567;61.652;17.100;2022-10-31T17:12:42;3.93;;;1.27;;
25707;SDS011;13567;61.652;17.100;2022-10-31T17:17:47;3.23;;;1.13;;
25707;SDS011;13567;61.652;17.100;2022-10-31T17:20:22;2.73;;;0.87;;
25707;SDS011;13567;61.652;17.100;2022-10-31T17:22:49;2.70;;;1.07;;
25707;SDS011;13567;61.652;17.100;2022-10-31T17:25:17;2.83;;;1.03;;
25707;SDS011;13567;61.652;17.100;2022-10-31T17:27:48;1.10;;;0.80;;
25707;SDS011;13567;61.652;17.100;2022-10-31T17:30:17;2.30;;;0.80;;
25707;SDS011;13567;61.652;17.100;2022-10-31T17:32:45;3.63;;;1.00;;
25707;SDS011;13567;61.652;17.100;2022-10-31T17:35:13;1.93;;;0.70;;